SCIPGVAC

Guest
Details From SCIP - Mataveri Intl
To GVAC - Sal Amilcar Cabral Intl
Flight Number -
Tags Generated
Created
Modified
Stats Distance 5,678 nm / 10,517 km
Max Altitude 0 ft / 0 m
Waypoints 4
Social Downloads 0
Likes 0
Share VATSIM

Download

Looking for another format? Having issues loading an existing format? Contact us
Advertisement - Login to hide

Notes

Generated

Route

SCIP ILBEM CVS GVAC

ID Type Via Altitude Latitude Longitude Leg Dist Tot Dist Heading (true) Name
O SCIP APT - 0 ft / 0 m -27.15796˚ -109.43667˚ - 0 nm - -
ILBEM FIX - 0 ft / 0 m -1.80150˚ -55.05750˚ 3473 nm 3473 nm 74° / 59° -
CVS VOR - 0 ft / 0 m 16.73677˚ -22.95105˚ 2204 nm 5678 nm 58° / 63° SAL VOR-DME
O GVAC APT - 0 ft / 0 m 16.73667˚ -22.95800˚ 0 nm 5678 nm 269° / 269° -

Altitude Profile

Advertisement - Login to hide

Weather


0- 5 10 15 20 25 30 35+ Temperature / ° C

Clouds and Precipitation
Forecast for 2017-12-14 18:00 UTC. Updated 7 minutes ago

Ground ~20,000 ft ~40,000 ft Winds

SCIP

Details ICAO SCIP (IPC)
Name Mataveri Intl
Region Chile
Timezone Pacific/Easter (UTC-5.0)
Stats Elevation 227 ft / 69 m (AMSL)
Location -27.164790° -109.421829°
Runways 1
Magnetic Variation 15.103° E

METAR

SCIP 141500Z 34014KT 9999 FEW020 SCT150 BKN250 22/18 Q1019 NOSIG

Decode

TAF

TAF SCIP 141012Z 1412/1512 33008KT 9999 SCT020 SCT250 TX25/1419Z TN20 /1511Z TEMPO 1413/1415 03013KT 7000 -SHRA BKN020 BKN200 BECMG 1416/1418 33013KT SCT020 SCT100 SCT200 TEMPO 1419/1502 03018KT SCT020 BKN100 SCT250 BECMG 1503/1505 33008KT SCT020 SCT050 BKN100

Decode

Departure Runways

ID Width Length Bearing (true) Bearing (mag) Surface Threshold Offset Overrun Length
10 145 ft / 44 m 10,848 ft / 3,306 m 117.35° 102.25° Asphalt 0 ft / 0 m 355 ft / 108 m
28 145 ft / 44 m 10,848 ft / 3,306 m 297.33° 282.23° Asphalt 0 ft / 0 m 95 ft / 29 m

GVAC

Details ICAO GVAC (SID)
Name Sal Amilcar Cabral Intl
Region Cape Verde
Timezone Atlantic/Cape_Verde (UTC-1.0)
Stats Elevation 177 ft / 54 m (AMSL)
Location 16.738208° -22.950500°
Runways 2
Magnetic Variation 9.241° W

METAR

GVAC 141500Z 08016KT 9000 SCT014 SCT016 BKN200 25/13 Q1016 NOSIG

Decode

TAF

TAF GVAC 141100Z 1412/1518 05018KT 9999 BKN014 TEMPO 1412/1420 06016G26KT PROB30 TEMPO 1412/1424 -RA TEMPO 1423/1506 5000 HZ

Decode

Destination Runways

ID Width Length Bearing (true) Bearing (mag) Surface Threshold Offset Overrun Length
01 148 ft / 45 m 10,826 ft / 3,300 m 359.69° 8.93° Asphalt 885 ft / 270 m 0 ft / 0 m
07 148 ft / 45 m 4,892 ft / 1,491 m 57.69° 66.93° Asphalt 200 ft / 61 m 0 ft / 0 m
19 148 ft / 45 m 10,826 ft / 3,300 m 179.69° 188.93° Asphalt 800 ft / 244 m 0 ft / 0 m
25 148 ft / 45 m 4,892 ft / 1,491 m 237.69° 246.93° Asphalt 200 ft / 61 m 0 ft / 0 m

Approach Navaids

Runway Type Ident Frequency Range Bearing (true) Bearing (mag) Slope Elevation
01 Localiser SL 109.90 MHz 18 nm / 33 km 359.58° 8.82° - 177 ft / 54 m (AMSL)
01 Glidescope SL 109.90 MHz 10 nm / 19 km 359.69° 8.93° 3.00° 177 ft / 54 m (AMSL)